Time;durP1;ratioP1;P1;durP2;ratioP2;P2;SDS_P1;SDS_P2;PMS_P1;PMS_P2;Temp;Humidity;BMP_temperature;BMP_pressure;BME280_temperature;BME280_humidity;BME280_pressure;Samples;Min_cycle;Max_cycle;Signal;HPM_P1;HPM_P2
2022/11/02 00:00:46;;;;;;;;;;;16.80;59.60;;;;;;5126382;27;19947;-67
2022/11/02 00:03:13;;;;;;;;;;;16.80;59.00;;;;;;5126658;27;20026;-66
2022/11/02 00:05:40;;;;;;;;;;;16.90;59.80;;;;;;5127318;27;19907;-66
2022/11/02 00:08:06;;;;;;;;;;;16.90;59.30;;;;;;5125826;27;19908;-68
2022/11/02 00:10:33;;;;;;;;;;;17.00;59.90;;;;;;5108526;27;20532;-66
2022/11/02 00:12:59;;;;;;;;;;;17.20;59.50;;;;;;5125996;27;19954;-67
2022/11/02 00:15:29;;;;;;;;;;;17.20;58.10;;;;;;5126845;27;19914;-67
2022/11/02 00:17:59;;;;;;;;;;;17.20;58.10;;;;;;5107224;27;19918;-66
2022/11/02 00:20:25;;;;;;;;;;;17.30;59.30;;;;;;5126724;27;19908;-68
2022/11/02 00:22:53;;;;;;;;;;;17.20;58.30;;;;;;5126030;27;19953;-67
2022/11/02 00:25:20;;;;;;;;;;;17.10;57.90;;;;;;5126378;27;19911;-66
2022/11/02 00:27:47;;;;;;;;;;;17.20;58.00;;;;;;5126617;27;19908;-67
2022/11/02 00:30:14;;;;;;;;;;;17.50;58.20;;;;;;5125963;27;19973;-67
2022/11/02 00:32:41;;;;;;;;;;;17.60;58.10;;;;;;5126182;27;19911;-68
2022/11/02 00:35:09;;;;;;;;;;;17.60;57.30;;;;;;5125423;27;19987;-67
2022/11/02 00:37:35;;;;;;;;;;;17.80;57.10;;;;;;5126856;27;20362;-68
2022/11/02 00:40:03;;;;;;;;;;;17.70;56.40;;;;;;5125542;27;19935;-67
2022/11/02 00:42:29;;;;;;;;;;;17.80;57.40;;;;;;5126497;27;19915;-67
2022/11/02 00:44:56;;;;;;;;;;;18.00;56.60;;;;;;5125148;27;20358;-67
2022/11/02 00:47:23;;;;;;;;;;;17.90;56.50;;;;;;5126295;27;19934;-69
2022/11/02 00:49:49;;;;;;;;;;;18.00;56.20;;;;;;5126148;27;19907;-68
2022/11/02 00:52:16;;;;;;;;;;;18.20;56.70;;;;;;5125222;27;19907;-67
2022/11/02 00:54:43;;;;;;;;;;;18.50;55.50;;;;;;5126022;27;19907;-67
2022/11/02 00:57:09;;;;;;;;;;;18.60;56.70;;;;;;5124175;27;20396;-68
2022/11/02 00:59:36;;;;;;;;;;;18.70;55.20;;;;;;5126064;27;19911;-68
2022/11/02 01:02:02;;;;;;;;;;;18.80;55.60;;;;;;5125665;27;19916;-68
2022/11/02 01:04:29;;;;;;;;;;;18.90;55.70;;;;;;5125286;27;19923;-67
2022/11/02 01:06:56;;;;;;;;;;;18.80;55.00;;;;;;5125596;27;19907;-67
2022/11/02 01:09:23;;;;;;;;;;;18.90;55.40;;;;;;5125159;27;19918;-68
2022/11/02 01:11:50;;;;;;;;;;;19.10;55.10;;;;;;5125502;27;19922;-67
2022/11/02 01:14:17;;;;;;;;;;;19.10;54.60;;;;;;5124398;27;19961;-67
2022/11/02 01:16:43;;;;;;;;;;;19.20;55.10;;;;;;5125847;27;20016;-68
2022/11/02 01:19:10;;;;;;;;;;;19.30;55.80;;;;;;5125501;27;20385;-68
2022/11/02 01:21:37;;;;;;;;;;;19.30;55.50;;;;;;5125505;27;19908;-67
2022/11/02 01:24:04;;;;;;;;;;;19.60;54.20;;;;;;5124700;27;20361;-67
2022/11/02 01:26:31;;;;;;;;;;;19.50;53.10;;;;;;5125163;27;19962;-67
2022/11/02 01:28:57;;;;;;;;;;;19.60;54.60;;;;;;5125590;27;19915;-67
2022/11/02 01:31:24;;;;;;;;;;;19.70;53.40;;;;;;5124777;27;19940;-67
2022/11/02 01:33:51;;;;;;;;;;;19.80;52.70;;;;;;5125011;27;20068;-68
2022/11/02 01:36:21;;;;;;;;;;;19.80;53.80;;;;;;5124537;27;19915;-68
2022/11/02 01:38:48;;;;;;;;;;;20.00;54.70;;;;;;5125410;27;19911;-69
2022/11/02 01:41:15;;;;;;;;;;;20.30;54.20;;;;;;5124508;27;19907;-67
2022/11/02 01:43:43;;;;;;;;;;;20.60;55.20;;;;;;5106812;27;19994;-67
2022/11/02 01:46:10;;;;;;;;;;;20.80;52.90;;;;;;5124529;27;20313;-67
2022/11/02 01:48:36;;;;;;;;;;;20.90;52.20;;;;;;5124814;27;19953;-68
2022/11/02 01:51:09;;;;;;;;;;;20.60;51.90;;;;;;5124591;27;19920;-67
2022/11/02 01:53:38;;;;;;;;;;;20.50;52.20;;;;;;5123920;27;19915;-68
2022/11/02 01:56:05;;;;;;;;;;;20.50;52.40;;;;;;5124078;27;19953;-66
2022/11/02 01:58:33;;;;;;;;;;;20.70;51.70;;;;;;5124786;27;20563;-67
2022/11/02 02:01:00;;;;;;;;;;;20.70;51.90;;;;;;5124566;27;19975;-66
2022/11/02 02:03:29;;;;;;;;;;;20.80;51.40;;;;;;5123823;27;19915;-67
2022/11/02 02:05:56;;;;;;;;;;;20.90;51.40;;;;;;5124396;27;19908;-67
2022/11/02 02:08:23;;;;;;;;;;;21.20;51.70;;;;;;5123828;27;19965;-69
2022/11/02 02:10:50;;;;;;;;;;;21.40;51.60;;;;;;5124685;27;19919;-66
2022/11/02 02:13:17;;;;;;;;;;;21.10;51.00;;;;;;5124040;27;20375;-68
2022/11/02 02:15:58;;;;;;;;;;;21.00;51.80;;;;;;5123766;27;20465;-69
2022/11/02 02:18:32;;;;;;;;;;;21.10;50.60;;;;;;5123699;27;19911;-69
2022/11/02 02:20:59;;;;;;;;;;;21.20;51.10;;;;;;5124238;27;19907;-67
2022/11/02 02:23:38;;;;;;;;;;;21.20;51.10;;;;;;5123708;27;19986;-68
2022/11/02 02:26:27;;;;;;;;;;;21.20;51.50;;;;;;5124069;27;19942;-66
2022/11/02 02:29:09;;;;;;;;;;;21.20;51.50;;;;;;5124306;27;19908;-66
2022/11/02 02:32:08;;;;;;;;;;;21.60;51.40;;;;;;5123885;27;20023;-68
2022/11/02 02:34:48;;;;;;;;;;;21.90;51.30;;;;;;5078206;27;19939;-68
2022/11/02 02:37:34;;;;;;;;;;;22.50;49.90;;;;;;5123155;27;20002;-70
2022/11/02 02:40:01;;;;;;;;;;;23.00;49.20;;;;;;5123840;27;20001;-69
2022/11/02 02:42:27;;;;;;;;;;;23.80;48.50;;;;;;5123477;27;20599;-68
2022/11/02 02:45:14;;;;;;;;;;;24.30;47.70;;;;;;5124012;27;19914;-68
2022/11/02 02:48:07;;;;;;;;;;;24.70;46.80;;;;;;5123134;27;20323;-69
2022/11/02 02:50:39;;;;;;;;;;;25.20;48.30;;;;;;5096842;27;19965;-68
2022/11/02 02:53:06;;;;;;;;;;;25.50;46.80;;;;;;5088773;28;19912;-70
2022/11/02 02:55:36;;;;;;;;;;;25.70;46.80;;;;;;5100738;28;19912;-69
2022/11/02 02:58:03;;;;;;;;;;;26.20;46.10;;;;;;5102129;28;20305;-66
2022/11/02 03:00:30;;;;;;;;;;;26.70;45.70;;;;;;5089788;28;20275;-66
2022/11/02 03:03:00;;;;;;;;;;;27.20;45.10;;;;;;5091110;28;20531;-67
2022/11/02 03:05:31;;;;;;;;;;;27.80;44.80;;;;;;5101888;28;19923;-69
2022/11/02 03:08:01;;;;;;;;;;;28.30;43.70;;;;;;5100032;28;19915;-68
2022/11/02 03:10:32;;;;;;;;;;;28.70;43.70;;;;;;5100701;28;19922;-67
2022/11/02 03:13:04;;;;;;;;;;;29.40;44.00;;;;;;5085636;28;19923;-67
2022/11/02 03:15:37;;;;;;;;;;;29.00;43.10;;;;;;5082021;28;20000;-67
2022/11/02 03:18:15;;;;;;;;;;;28.80;42.70;;;;;;5081992;28;19908;-66
2022/11/02 03:20:44;;;;;;;;;;;29.00;42.90;;;;;;5090727;28;20533;-67
2022/11/02 03:23:29;;;;;;;;;;;29.60;42.50;;;;;;5084653;28;20261;-67
2022/11/02 03:26:02;;;;;;;;;;;30.20;42.30;;;;;;5102101;28;20553;-66
2022/11/02 03:28:47;;;;;;;;;;;29.50;42.40;;;;;;5100940;28;19911;-67
2022/11/02 03:31:36;;;;;;;;;;;29.30;43.00;;;;;;5101979;28;19920;-65
2022/11/02 03:34:03;;;;;;;;;;;29.60;42.40;;;;;;5088676;28;20295;-69
2022/11/02 03:36:36;;;;;;;;;;;30.10;41.30;;;;;;5089587;28;20006;-64
2022/11/02 03:39:08;;;;;;;;;;;30.30;40.70;;;;;;5100756;28;20442;-67
2022/11/02 03:41:35;;;;;;;;;;;30.60;41.10;;;;;;5099975;28;19907;-66
2022/11/02 03:44:06;;;;;;;;;;;30.40;41.00;;;;;;5095541;28;20276;-68
2022/11/02 03:46:34;;;;;;;;;;;30.60;41.50;;;;;;5101615;28;20053;-67
2022/11/02 03:49:02;;;;;;;;;;;31.20;40.10;;;;;;5101005;28;19908;-65
2022/11/02 03:51:29;;;;;;;;;;;31.60;40.60;;;;;;5094138;28;19919;-67
2022/11/02 03:54:19;;;;;;;;;;;32.30;40.50;;;;;;5099696;28;20057;-67
2022/11/02 03:56:47;;;;;;;;;;;33.20;39.50;;;;;;5074894;28;20320;-66
2022/11/02 03:59:14;;;;;;;;;;;33.60;39.10;;;;;;5090523;28;20272;-67
2022/11/02 04:01:44;;;;;;;;;;;34.00;40.30;;;;;;5096652;28;19912;-67
2022/11/02 04:04:11;;;;;;;;;;;34.00;38.10;;;;;;5091419;28;19920;-67
2022/11/02 04:06:38;;;;;;;;;;;33.10;38.80;;;;;;5081294;28;20050;-68
2022/11/02 04:09:05;;;;;;;;;;;33.20;39.20;;;;;;5101847;28;19908;-67
2022/11/02 04:14:40;;;;;;;;;;;33.30;38.10;;;;;;5034502;28;19924;-66
2022/11/02 04:19:55;;;;;;;;;;;33.80;38.10;;;;;;5097969;28;19972;-67
2022/11/02 04:25:19;;;;;;;;;;;33.70;38.40;;;;;;5080494;28;19919;-67
2022/11/02 04:27:47;;;;;;;;;;;33.70;39.20;;;;;;5079861;28;19912;-68
2022/11/02 04:30:15;;;;;;;;;;;34.10;37.70;;;;;;5098083;28;19923;-68
2022/11/02 04:35:27;;;;;;;;;;;33.70;38.20;;;;;;5100259;28;19922;-67
2022/11/02 04:40:38;;;;;;;;;;;33.20;39.00;;;;;;5101897;28;20351;-67
2022/11/02 04:43:05;;;;;;;;;;;33.40;38.40;;;;;;5100563;28;19915;-68
2022/11/02 04:45:32;;;;;;;;;;;33.80;39.00;;;;;;5100062;28;21153;-67
2022/11/02 04:48:03;;;;;;;;;;;34.20;37.90;;;;;;5098414;28;20387;-67
2022/11/02 04:50:30;;;;;;;;;;;33.30;38.00;;;;;;5096244;28;19941;-67
2022/11/02 04:53:01;;;;;;;;;;;32.70;37.80;;;;;;5099905;28;20519;-67
2022/11/02 04:55:27;;;;;;;;;;;32.30;38.90;;;;;;5101840;28;20249;-67
2022/11/02 04:57:54;;;;;;;;;;;31.20;39.80;;;;;;5101109;28;19912;-69
2022/11/02 05:00:21;;;;;;;;;;;30.00;40.80;;;;;;5100973;28;20408;-67
2022/11/02 05:02:48;;;;;;;;;;;29.90;40.30;;;;;;5082514;28;19915;-67
2022/11/02 05:05:15;;;;;;;;;;;29.60;40.10;;;;;;5100442;28;19924;-68
2022/11/02 05:07:43;;;;;;;;;;;29.40;40.70;;;;;;5100263;28;19912;-68
2022/11/02 05:10:09;;;;;;;;;;;29.90;40.10;;;;;;5100594;28;19944;-68
2022/11/02 05:12:36;;;;;;;;;;;31.00;39.20;;;;;;5101809;28;19908;-67
2022/11/02 05:15:03;;;;;;;;;;;31.00;39.40;;;;;;5096085;28;19938;-67
2022/11/02 05:17:30;;;;;;;;;;;30.20;39.90;;;;;;5101721;28;19908;-69
2022/11/02 05:19:57;;;;;;;;;;;29.40;41.00;;;;;;5100745;28;19943;-69
2022/11/02 05:22:23;;;;;;;;;;;30.00;40.60;;;;;;5098568;28;19907;-67
2022/11/02 05:24:50;;;;;;;;;;;30.80;40.70;;;;;;5099284;28;19967;-67
2022/11/02 05:27:16;;;;;;;;;;;31.40;40.40;;;;;;5100572;28;20368;-66
2022/11/02 05:29:43;;;;;;;;;;;31.60;39.90;;;;;;5099375;28;19922;-68
2022/11/02 05:32:10;;;;;;;;;;;31.20;37.90;;;;;;5101924;28;19916;-68
2022/11/02 05:34:36;;;;;;;;;;;31.00;38.70;;;;;;5098576;28;19961;-69
2022/11/02 05:37:03;;;;;;;;;;;31.00;38.70;;;;;;5101501;28;19908;-69
2022/11/02 05:39:30;;;;;;;;;;;31.20;38.70;;;;;;5102013;28;19912;-68
2022/11/02 05:41:56;;;;;;;;;;;31.30;39.50;;;;;;5095320;28;19915;-66
2022/11/02 05:44:23;;;;;;;;;;;31.40;39.10;;;;;;5100433;28;19923;-69
2022/11/02 05:46:50;;;;;;;;;;;31.50;39.90;;;;;;5100789;28;19912;-67
2022/11/02 05:49:16;;;;;;;;;;;31.00;38.70;;;;;;5091695;28;19923;-67
2022/11/02 05:51:43;;;;;;;;;;;31.00;40.20;;;;;;5097512;28;19920;-68
2022/11/02 05:54:10;;;;;;;;;;;31.70;39.30;;;;;;5101372;28;19908;-67
2022/11/02 05:56:36;;;;;;;;;;;31.40;40.00;;;;;;5099872;28;19916;-68
2022/11/02 05:59:03;;;;;;;;;;;30.80;40.10;;;;;;5079143;28;20299;-67
2022/11/02 06:01:30;;;;;;;;;;;30.40;39.80;;;;;;5085117;28;19990;-68
2022/11/02 06:03:56;;;;;;;;;;;30.50;40.50;;;;;;5098447;28;19981;-69
2022/11/02 06:06:23;;;;;;;;;;;30.90;39.90;;;;;;5084356;28;19999;-68
2022/11/02 06:08:49;;;;;;;;;;;30.90;39.00;;;;;;5091069;28;19908;-68
2022/11/02 06:11:16;;;;;;;;;;;31.50;39.00;;;;;;5095531;28;20288;-68
2022/11/02 06:13:43;;;;;;;;;;;31.30;38.70;;;;;;5085852;28;19912;-70
2022/11/02 06:16:10;;;;;;;;;;;30.90;39.00;;;;;;5085520;28;19916;-71
2022/11/02 06:18:37;;;;;;;;;;;30.70;38.60;;;;;;5088947;28;20019;-69
2022/11/02 06:21:04;;;;;;;;;;;30.10;39.80;;;;;;5095937;28;19919;-70
2022/11/02 06:23:31;;;;;;;;;;;29.60;40.10;;;;;;5101458;28;19952;-69
2022/11/02 06:25:58;;;;;;;;;;;28.90;40.00;;;;;;5089461;28;19916;-68
2022/11/02 06:28:25;;;;;;;;;;;28.30;41.50;;;;;;5087325;28;19912;-68
2022/11/02 06:30:52;;;;;;;;;;;27.00;42.10;;;;;;5085006;28;19921;-68
2022/11/02 06:33:19;;;;;;;;;;;26.00;44.10;;;;;;5083979;28;19912;-68
2022/11/02 06:35:46;;;;;;;;;;;25.00;44.50;;;;;;5094082;28;19912;-69
2022/11/02 06:38:13;;;;;;;;;;;24.10;45.80;;;;;;5079656;28;20009;-69
2022/11/02 06:40:40;;;;;;;;;;;23.50;47.30;;;;;;5092350;28;19912;-68
2022/11/02 06:43:07;;;;;;;;;;;23.10;47.40;;;;;;5100164;28;20263;-68
2022/11/02 06:45:33;;;;;;;;;;;22.90;47.70;;;;;;5094976;28;19920;-67
2022/11/02 06:48:01;;;;;;;;;;;22.70;47.80;;;;;;5100499;28;19908;-67
2022/11/02 06:50:28;;;;;;;;;;;22.40;47.30;;;;;;5094781;28;20282;-65
2022/11/02 06:52:55;;;;;;;;;;;22.30;48.40;;;;;;5095251;28;19912;-66
2022/11/02 06:55:21;;;;;;;;;;;22.20;48.40;;;;;;5100655;28;19914;-66
2022/11/02 06:57:48;;;;;;;;;;;22.10;48.90;;;;;;5101511;28;19914;-69
2022/11/02 07:00:18;;;;;;;;;;;22.00;47.40;;;;;;5096436;28;19920;-68
2022/11/02 07:02:45;;;;;;;;;;;21.70;47.40;;;;;;5089545;28;20356;-66
2022/11/02 07:05:12;;;;;;;;;;;21.50;48.60;;;;;;5079929;28;20352;-67
2022/11/02 07:07:39;;;;;;;;;;;21.40;48.90;;;;;;5080060;28;20356;-67
2022/11/02 07:10:09;;;;;;;;;;;21.20;49.70;;;;;;5095525;28;19908;-68
2022/11/02 07:12:36;;;;;;;;;;;20.90;51.00;;;;;;5081803;28;20401;-67
2022/11/02 07:15:02;;;;;;;;;;;20.60;52.10;;;;;;5083434;28;20356;-69
2022/11/02 07:17:29;;;;;;;;;;;20.40;52.70;;;;;;5082427;28;19918;-67
2022/11/02 07:19:56;;;;;;;;;;;20.40;53.30;;;;;;5099441;28;19963;-67
2022/11/02 07:22:23;;;;;;;;;;;20.10;52.90;;;;;;5081286;28;19912;-68
2022/11/02 07:24:49;;;;;;;;;;;19.80;53.60;;;;;;5094514;28;19911;-66
2022/11/02 07:27:16;;;;;;;;;;;19.80;53.00;;;;;;5101258;28;19915;-68
2022/11/02 07:29:42;;;;;;;;;;;19.50;52.40;;;;;;5102012;28;19914;-68
2022/11/02 07:32:09;;;;;;;;;;;19.40;52.20;;;;;;5086941;28;19920;-68
2022/11/02 07:34:36;;;;;;;;;;;19.30;52.50;;;;;;5097286;28;19965;-67
2022/11/02 07:37:02;;;;;;;;;;;19.10;53.00;;;;;;5080096;28;19955;-68
2022/11/02 07:39:29;;;;;;;;;;;19.00;53.60;;;;;;5080712;28;20690;-69
2022/11/02 07:41:56;;;;;;;;;;;18.90;54.40;;;;;;5080216;28;20003;-67
2022/11/02 07:44:22;;;;;;;;;;;18.80;54.80;;;;;;5081734;28;19909;-67
2022/11/02 07:46:49;;;;;;;;;;;18.70;54.80;;;;;;5097951;28;20008;-68
2022/11/02 07:49:16;;;;;;;;;;;18.40;55.10;;;;;;5085617;28;19912;-67
2022/11/02 07:51:42;;;;;;;;;;;18.30;55.50;;;;;;5081692;28;19920;-69
2022/11/02 07:54:09;;;;;;;;;;;18.20;55.90;;;;;;5080948;28;20261;-68
2022/11/02 07:56:35;;;;;;;;;;;18.00;56.30;;;;;;5082174;28;19908;-67
2022/11/02 07:59:02;;;;;;;;;;;18.00;56.70;;;;;;5101006;28;19918;-69
2022/11/02 08:01:29;;;;;;;;;;;17.90;56.60;;;;;;5087232;28;19961;-68
2022/11/02 08:03:55;;;;;;;;;;;17.70;57.10;;;;;;5079509;28;19927;-66
2022/11/02 08:06:22;;;;;;;;;;;17.70;58.10;;;;;;5083115;28;19908;-67
2022/11/02 08:08:48;;;;;;;;;;;17.60;57.20;;;;;;5088757;28;19922;-67
2022/11/02 08:11:15;;;;;;;;;;;17.50;57.80;;;;;;5091232;28;20261;-68
2022/11/02 08:13:42;;;;;;;;;;;17.50;58.20;;;;;;5086567;28;19912;-67
2022/11/02 08:16:09;;;;;;;;;;;17.30;57.30;;;;;;5084277;28;19952;-68
2022/11/02 08:18:35;;;;;;;;;;;17.20;57.20;;;;;;5085083;28;19908;-68
2022/11/02 08:21:03;;;;;;;;;;;17.10;57.80;;;;;;5074436;28;19912;-66
2022/11/02 08:23:29;;;;;;;;;;;17.00;58.10;;;;;;5091941;28;19908;-67
2022/11/02 08:25:57;;;;;;;;;;;17.00;58.30;;;;;;5083289;28;20269;-66
2022/11/02 08:28:26;;;;;;;;;;;16.90;58.60;;;;;;5087740;28;19920;-68
2022/11/02 08:30:52;;;;;;;;;;;16.90;58.80;;;;;;5076961;28;19952;-68
2022/11/02 08:33:20;;;;;;;;;;;16.80;59.20;;;;;;5094623;28;19916;-68
2022/11/02 08:35:47;;;;;;;;;;;16.70;59.40;;;;;;5104485;28;19912;-67
2022/11/02 08:38:14;;;;;;;;;;;16.60;59.70;;;;;;5103844;28;19916;-66
2022/11/02 08:40:41;;;;;;;;;;;16.40;59.90;;;;;;5096678;28;20022;-68
2022/11/02 08:43:08;;;;;;;;;;;16.40;60.40;;;;;;5084278;28;19908;-66
2022/11/02 08:45:37;;;;;;;;;;;16.40;60.20;;;;;;5097189;28;19935;-66
2022/11/02 08:48:04;;;;;;;;;;;16.40;60.30;;;;;;5103392;28;19908;-67
2022/11/02 08:50:30;;;;;;;;;;;16.40;60.60;;;;;;5098555;28;19911;-68
2022/11/02 08:52:57;;;;;;;;;;;16.30;60.70;;;;;;5083348;28;19912;-68
2022/11/02 08:55:24;;;;;;;;;;;16.30;61.00;;;;;;5084844;28;20422;-68
2022/11/02 08:57:52;;;;;;;;;;;16.30;61.60;;;;;;5098678;28;19911;-68
2022/11/02 09:00:19;;;;;;;;;;;16.20;61.20;;;;;;5099674;28;19948;-66
2022/11/02 09:03:06;;;;;;;;;;;16.20;61.50;;;;;;5083285;28;19908;-68
2022/11/02 09:05:34;;;;;;;;;;;16.10;61.70;;;;;;5083918;28;19916;-66
2022/11/02 09:08:05;;;;;;;;;;;16.10;61.90;;;;;;5083128;28;19961;-65
2022/11/02 09:10:33;;;;;;;;;;;16.10;62.30;;;;;;5092548;28;19926;-67
2022/11/02 09:13:00;;;;;;;;;;;16.10;62.50;;;;;;5086327;28;19951;-66
2022/11/02 09:15:27;;;;;;;;;;;16.00;61.70;;;;;;5083889;28;19916;-69
2022/11/02 09:17:54;;;;;;;;;;;16.00;61.70;;;;;;5083345;28;19908;-67
2022/11/02 09:20:21;;;;;;;;;;;16.00;61.70;;;;;;5085778;28;20002;-66
2022/11/02 09:22:48;;;;;;;;;;;16.00;62.20;;;;;;5098528;28;19927;-65
2022/11/02 09:25:15;;;;;;;;;;;16.00;61.70;;;;;;5102652;28;19991;-66
2022/11/02 09:27:42;;;;;;;;;;;16.00;61.90;;;;;;5104268;28;19908;-66
2022/11/02 09:30:09;;;;;;;;;;;15.90;61.70;;;;;;5100040;28;19954;-66
2022/11/02 09:32:37;;;;;;;;;;;15.80;62.30;;;;;;5098129;28;19955;-67
2022/11/02 09:35:05;;;;;;;;;;;15.70;62.40;;;;;;5082890;28;19916;-67
2022/11/02 09:37:32;;;;;;;;;;;15.70;63.10;;;;;;5083782;28;19961;-68
2022/11/02 09:39:59;;;;;;;;;;;15.70;63.10;;;;;;5065599;28;20334;-67
2022/11/02 09:42:25;;;;;;;;;;;15.60;63.10;;;;;;5083737;28;20006;-65
2022/11/02 09:44:57;;;;;;;;;;;15.60;62.90;;;;;;5102543;28;19999;-67
2022/11/02 09:47:25;;;;;;;;;;;15.60;63.30;;;;;;5082420;28;19945;-67
2022/11/02 09:49:53;;;;;;;;;;;15.70;62.90;;;;;;5083685;28;20400;-67
2022/11/02 09:52:39;;;;;;;;;;;15.60;63.60;;;;;;5081560;28;20318;-68
2022/11/02 09:55:16;;;;;;;;;;;15.60;63.20;;;;;;5090141;28;19915;-67
2022/11/02 09:57:45;;;;;;;;;;;15.50;63.30;;;;;;5103747;28;19915;-66
2022/11/02 10:00:13;;;;;;;;;;;15.50;63.50;;;;;;5100844;28;19915;-67
2022/11/02 10:02:48;;;;;;;;;;;15.50;63.90;;;;;;5108326;22;20066;-68
2022/11/02 10:05:47;;;;;;;;;;;15.50;63.80;;;;;;5059467;28;19912;-68
2022/11/02 10:08:19;;;;;;;;;;;15.50;63.70;;;;;;5021581;28;19908;-69
2022/11/02 10:10:49;;;;;;;;;;;15.40;64.00;;;;;;5061191;28;19920;-68
2022/11/02 10:13:18;;;;;;;;;;;15.30;63.40;;;;;;5042016;28;19909;-69
2022/11/02 10:15:47;;;;;;;;;;;15.30;63.90;;;;;;5042664;28;19935;-75
2022/11/02 10:18:27;;;;;;;;;;;15.20;63.60;;;;;;5039787;28;20003;-69
2022/11/02 10:20:55;;;;;;;;;;;15.30;64.10;;;;;;5018649;28;19920;-69
2022/11/02 10:23:25;;;;;;;;;;;15.30;64.60;;;;;;5040716;28;19973;-71
2022/11/02 10:25:51;;;;;;;;;;;15.20;64.50;;;;;;5040655;28;19913;-72
2022/11/02 10:28:26;;;;;;;;;;;15.20;64.60;;;;;;5041992;28;20367;-68
2022/11/02 10:30:53;;;;;;;;;;;15.10;64.70;;;;;;5058733;28;20336;-70
2022/11/02 10:33:25;;;;;;;;;;;15.10;64.40;;;;;;5040416;28;19913;-68
2022/11/02 10:36:13;;;;;;;;;;;15.10;64.50;;;;;;5038783;28;20015;-69
2022/11/02 10:38:39;;;;;;;;;;;15.10;64.70;;;;;;5041058;28;20051;-68
2022/11/02 10:41:09;;;;;;;;;;;15.10;65.00;;;;;;5042609;28;20583;-73
2022/11/02 10:43:50;;;;;;;;;;;15.10;65.30;;;;;;5040361;28;19916;-68
2022/11/02 10:46:40;;;;;;;;;;;15.00;65.00;;;;;;5046676;28;20360;-69
2022/11/02 10:49:10;;;;;;;;;;;15.10;65.20;;;;;;5047062;28;19913;-68
2022/11/02 10:51:36;;;;;;;;;;;15.00;65.30;;;;;;5041718;28;19917;-67
2022/11/02 10:54:08;;;;;;;;;;;15.00;65.80;;;;;;5042534;28;19916;-72
2022/11/02 10:56:34;;;;;;;;;;;15.00;65.00;;;;;;5040749;28;20277;-69
2022/11/02 10:59:14;;;;;;;;;;;15.00;65.50;;;;;;5054759;28;19912;-68
2022/11/02 11:01:46;;;;;;;;;;;14.90;65.60;;;;;;5061524;28;19912;-69
2022/11/02 11:04:33;;;;;;;;;;;14.80;66.20;;;;;;5040988;28;19983;-70
2022/11/02 11:07:17;;;;;;;;;;;14.80;65.90;;;;;;5042217;28;20331;-70
2022/11/02 11:09:46;;;;;;;;;;;14.80;66.40;;;;;;5040104;28;19909;-72
2022/11/02 11:12:19;;;;;;;;;;;14.80;66.60;;;;;;5022828;28;20293;-71
2022/11/02 11:14:48;;;;;;;;;;;14.80;66.40;;;;;;5029289;28;20361;-71
2022/11/02 11:17:22;;;;;;;;;;;14.80;66.40;;;;;;5042718;28;19932;-73
2022/11/02 11:19:53;;;;;;;;;;;14.80;66.40;;;;;;5042658;28;20423;-71
2022/11/02 11:22:28;;;;;;;;;;;14.70;66.60;;;;;;5038164;28;20614;-70
2022/11/02 11:25:04;;;;;;;;;;;14.70;66.50;;;;;;5022023;28;20274;-73
2022/11/02 11:27:43;;;;;;;;;;;14.70;66.80;;;;;;5021217;28;20047;-72
2022/11/02 11:30:22;;;;;;;;;;;14.70;66.80;;;;;;5020827;28;19913;-71
2022/11/02 11:32:49;;;;;;;;;;;14.70;66.90;;;;;;5021019;28;19921;-72
2022/11/02 11:35:17;;;;;;;;;;;14.70;66.70;;;;;;5032829;28;19919;-73
2022/11/02 11:37:55;;;;;;;;;;;14.70;67.20;;;;;;5041222;28;20619;-73
2022/11/02 11:40:22;;;;;;;;;;;14.70;66.90;;;;;;5042300;28;20354;-71
2022/11/02 11:42:50;;;;;;;;;;;14.70;66.90;;;;;;5045687;28;19980;-72
2022/11/02 11:45:20;;;;;;;;;;;14.60;66.90;;;;;;5046367;28;19920;-67
2022/11/02 11:47:50;;;;;;;;;;;14.60;67.70;;;;;;5029183;28;20024;-68
2022/11/02 11:50:17;;;;;;;;;;;14.60;67.30;;;;;;5025837;28;19909;-68
2022/11/02 11:52:44;;;;;;;;;;;14.60;67.00;;;;;;5025247;28;19917;-68
2022/11/02 11:55:21;;;;;;;;;;;14.60;67.40;;;;;;5026145;28;20071;-69
2022/11/02 11:58:08;;;;;;;;;;;14.60;68.50;;;;;;5024541;28;19913;-68
2022/11/02 12:00:35;;;;;;;;;;;14.60;67.70;;;;;;5010788;28;19913;-68
2022/11/02 12:03:06;;;;;;;;;;;14.60;67.70;;;;;;5031175;28;19920;-73
2022/11/02 12:05:50;;;;;;;;;;;14.50;67.40;;;;;;5045922;28;19936;-70
2022/11/02 12:08:17;;;;;;;;;;;14.50;67.50;;;;;;5045478;28;19909;-68
2022/11/02 12:10:47;;;;;;;;;;;14.50;67.80;;;;;;5049448;28;20453;-69
2022/11/02 12:13:16;;;;;;;;;;;14.50;68.10;;;;;;5065774;28;20382;-71
2022/11/02 12:15:46;;;;;;;;;;;14.50;67.90;;;;;;5064989;28;19915;-72
2022/11/02 12:18:13;;;;;;;;;;;14.40;67.80;;;;;;5065239;28;20329;-68
2022/11/02 12:20:57;;;;;;;;;;;14.40;68.00;;;;;;5056727;28;19913;-71
2022/11/02 12:23:33;;;;;;;;;;;14.40;68.20;;;;;;5045866;28;19909;-71
2022/11/02 12:26:06;;;;;;;;;;;14.50;68.60;;;;;;5044032;28;19943;-71
2022/11/02 12:28:38;;;;;;;;;;;14.40;68.10;;;;;;5045577;28;19916;-68
2022/11/02 12:31:08;;;;;;;;;;;14.40;68.50;;;;;;5043128;28;19956;-71
2022/11/02 12:33:49;;;;;;;;;;;14.40;68.20;;;;;;5059041;28;19913;-72
2022/11/02 12:36:19;;;;;;;;;;;14.30;68.20;;;;;;5065326;28;19908;-69
2022/11/02 12:38:49;;;;;;;;;;;14.40;68.70;;;;;;5047096;28;19917;-68
2022/11/02 12:41:21;;;;;;;;;;;14.30;68.70;;;;;;5045318;28;19947;-68
2022/11/02 12:43:54;;;;;;;;;;;14.30;69.00;;;;;;5044813;28;19915;-70
2022/11/02 12:46:39;;;;;;;;;;;14.30;68.80;;;;;;5063952;28;19921;-70
2022/11/02 12:49:15;;;;;;;;;;;14.30;68.80;;;;;;5063577;28;19908;-69
2022/11/02 12:51:44;;;;;;;;;;;14.20;69.00;;;;;;5064701;28;19917;-72
2022/11/02 12:54:15;;;;;;;;;;;14.20;69.00;;;;;;5060126;28;20408;-71
2022/11/02 12:56:51;;;;;;;;;;;14.20;69.30;;;;;;5050991;28;19913;-72
2022/11/02 12:59:26;;;;;;;;;;;14.20;69.40;;;;;;5064628;28;20550;-69
2022/11/02 13:02:04;;;;;;;;;;;14.10;69.60;;;;;;5064053;28;19915;-72
2022/11/02 13:04:33;;;;;;;;;;;14.20;70.60;;;;;;5064753;28;19999;-69
2022/11/02 13:07:09;;;;;;;;;;;14.10;70.00;;;;;;5061481;28;19908;-70
2022/11/02 13:09:39;;;;;;;;;;;14.10;69.80;;;;;;5057256;28;19919;-73
2022/11/02 13:12:09;;;;;;;;;;;14.00;70.20;;;;;;5063351;28;19962;-70
2022/11/02 13:14:43;;;;;;;;;;;14.00;70.10;;;;;;5064469;28;19919;-69
2022/11/02 13:17:21;;;;;;;;;;;13.90;71.00;;;;;;5063005;28;19909;-69
2022/11/02 13:19:52;;;;;;;;;;;13.90;70.50;;;;;;5064760;28;19909;-71
2022/11/02 13:22:20;;;;;;;;;;;13.90;70.80;;;;;;5045293;28;19921;-69
2022/11/02 13:24:52;;;;;;;;;;;13.80;71.20;;;;;;5044856;28;19913;-73
2022/11/02 13:27:29;;;;;;;;;;;13.80;71.60;;;;;;5043724;28;19928;-73
2022/11/02 13:29:58;;;;;;;;;;;13.80;71.00;;;;;;5043982;28;20593;-73
2022/11/02 13:32:30;;;;;;;;;;;13.80;71.60;;;;;;5047053;28;19968;-72
2022/11/02 13:34:57;;;;;;;;;;;13.90;71.30;;;;;;5063351;28;19909;-72
2022/11/02 13:37:33;;;;;;;;;;;13.80;71.90;;;;;;5063703;28;19912;-74
2022/11/02 13:40:02;;;;;;;;;;;13.80;72.50;;;;;;5062223;28;20031;-70
2022/11/02 13:43:04;;;;;;;;;;;13.70;72.20;;;;;;5063500;28;19909;-72
2022/11/02 13:45:45;;;;;;;;;;;13.70;72.50;;;;;;4985390;28;19914;-69
2022/11/02 13:48:21;;;;;;;;;;;13.70;73.20;;;;;;5036815;28;19913;-71
2022/11/02 13:50:53;;;;;;;;;;;13.60;72.90;;;;;;5040371;28;19917;-68
2022/11/02 13:53:39;;;;;;;;;;;13.50;73.20;;;;;;5024630;28;19995;-73
2022/11/02 13:56:10;;;;;;;;;;;13.50;73.80;;;;;;5040177;28;19927;-72
2022/11/02 13:58:40;;;;;;;;;;;13.50;74.10;;;;;;5042281;28;19908;-70
2022/11/02 14:01:09;;;;;;;;;;;13.50;74.30;;;;;;5063152;28;19904;-71
2022/11/02 14:03:53;;;;;;;;;;;13.50;75.00;;;;;;5061835;28;20369;-72
2022/11/02 14:06:20;;;;;;;;;;;13.50;74.80;;;;;;5058255;28;20297;-72
2022/11/02 14:08:47;;;;;;;;;;;13.40;75.10;;;;;;5043184;28;19913;-73
2022/11/02 14:11:14;;;;;;;;;;;13.40;74.90;;;;;;5042754;28;20392;-73
2022/11/02 14:13:52;;;;;;;;;;;13.30;75.20;;;;;;5042661;28;19966;-69
2022/11/02 14:16:56;;;;;;;;;;;13.20;75.40;;;;;;5042661;28;19920;-73
2022/11/02 14:19:47;;;;;;;;;;;13.30;75.80;;;;;;4981719;28;20615;-71
2022/11/02 14:22:15;;;;;;;;;;;13.20;76.20;;;;;;5042085;28;19931;-70
2022/11/02 14:24:41;;;;;;;;;;;13.20;76.30;;;;;;5042884;28;19909;-72
2022/11/02 14:27:11;;;;;;;;;;;13.10;77.10;;;;;;5042583;28;20308;-68
2022/11/02 14:29:38;;;;;;;;;;;13.10;76.60;;;;;;5050453;28;19913;-72
2022/11/02 14:32:14;;;;;;;;;;;13.20;77.20;;;;;;5046906;28;20019;-67
2022/11/02 14:34:44;;;;;;;;;;;13.10;77.00;;;;;;5041866;28;19909;-68
2022/11/02 14:37:14;;;;;;;;;;;13.10;76.80;;;;;;5042340;28;20450;-67
2022/11/02 14:39:52;;;;;;;;;;;13.10;77.00;;;;;;5042081;28;20289;-68
2022/11/02 14:42:19;;;;;;;;;;;13.10;77.00;;;;;;5044290;28;20377;-69
2022/11/02 14:44:59;;;;;;;;;;;13.00;76.70;;;;;;5061956;28;20029;-68
2022/11/02 14:47:30;;;;;;;;;;;13.00;76.90;;;;;;5061635;28;20262;-70